sensor_id;sensor_type;location;lat;lon;timestamp;P1;durP1;ratioP1;P2;durP2;ratioP2
66380;SDS011;53177;52.648;1.214;2023-12-20T00:01:45;9.82;;;1.98;;
66380;SDS011;53177;52.648;1.214;2023-12-20T00:04:11;10.90;;;2.00;;
66380;SDS011;53177;52.648;1.214;2023-12-20T00:06:36;12.73;;;2.20;;
66380;SDS011;53177;52.648;1.214;2023-12-20T00:09:02;16.03;;;2.40;;
66380;SDS011;53177;52.648;1.214;2023-12-20T00:11:27;10.67;;;1.97;;
66380;SDS011;53177;52.648;1.214;2023-12-20T00:13:53;11.50;;;2.13;;
66380;SDS011;53177;52.648;1.214;2023-12-20T00:16:18;15.52;;;2.35;;
66380;SDS011;53177;52.648;1.214;2023-12-20T00:18:43;10.30;;;2.40;;
66380;SDS011;53177;52.648;1.214;2023-12-20T00:21:09;8.17;;;2.20;;
66380;SDS011;53177;52.648;1.214;2023-12-20T00:23:35;10.80;;;2.08;;
66380;SDS011;53177;52.648;1.214;2023-12-20T00:26:00;13.37;;;2.80;;
66380;SDS011;53177;52.648;1.214;2023-12-20T00:28:25;14.03;;;2.10;;
66380;SDS011;53177;52.648;1.214;2023-12-20T00:30:51;9.03;;;1.87;;
66380;SDS011;53177;52.648;1.214;2023-12-20T00:33:16;8.83;;;1.97;;
66380;SDS011;53177;52.648;1.214;2023-12-20T00:35:41;11.17;;;2.60;;
66380;SDS011;53177;52.648;1.214;2023-12-20T00:38:07;11.47;;;2.40;;
66380;SDS011;53177;52.648;1.214;2023-12-20T00:40:33;9.90;;;2.40;;
66380;SDS011;53177;52.648;1.214;2023-12-20T00:42:59;13.97;;;2.20;;
66380;SDS011;53177;52.648;1.214;2023-12-20T00:45:24;8.43;;;2.10;;
66380;SDS011;53177;52.648;1.214;2023-12-20T00:47:50;9.77;;;2.22;;
66380;SDS011;53177;52.648;1.214;2023-12-20T00:50:16;11.70;;;2.47;;
66380;SDS011;53177;52.648;1.214;2023-12-20T00:52:41;12.73;;;2.17;;
66380;SDS011;53177;52.648;1.214;2023-12-20T00:55:07;13.77;;;2.42;;
66380;SDS011;53177;52.648;1.214;2023-12-20T00:57:32;14.13;;;2.17;;
66380;SDS011;53177;52.648;1.214;2023-12-20T00:59:58;7.87;;;1.70;;
66380;SDS011;53177;52.648;1.214;2023-12-20T01:02:23;12.95;;;2.15;;
66380;SDS011;53177;52.648;1.214;2023-12-20T01:04:49;11.57;;;2.20;;
66380;SDS011;53177;52.648;1.214;2023-12-20T01:07:14;12.13;;;2.20;;
66380;SDS011;53177;52.648;1.214;2023-12-20T01:09:39;12.87;;;1.87;;
66380;SDS011;53177;52.648;1.214;2023-12-20T01:12:05;9.97;;;2.10;;
66380;SDS011;53177;52.648;1.214;2023-12-20T01:14:30;9.80;;;2.15;;
66380;SDS011;53177;52.648;1.214;2023-12-20T01:16:56;12.43;;;2.08;;
66380;SDS011;53177;52.648;1.214;2023-12-20T01:19:21;12.00;;;2.03;;
66380;SDS011;53177;52.648;1.214;2023-12-20T01:21:47;11.30;;;2.20;;
66380;SDS011;53177;52.648;1.214;2023-12-20T01:24:12;9.03;;;1.97;;
66380;SDS011;53177;52.648;1.214;2023-12-20T01:26:37;10.70;;;2.00;;
66380;SDS011;53177;52.648;1.214;2023-12-20T01:29:03;9.03;;;1.93;;
66380;SDS011;53177;52.648;1.214;2023-12-20T01:31:28;12.40;;;2.40;;
66380;SDS011;53177;52.648;1.214;2023-12-20T01:33:53;8.57;;;2.25;;
66380;SDS011;53177;52.648;1.214;2023-12-20T01:36:19;12.93;;;2.20;;
66380;SDS011;53177;52.648;1.214;2023-12-20T01:38:44;9.60;;;2.10;;
66380;SDS011;53177;52.648;1.214;2023-12-20T01:41:10;7.80;;;2.00;;
66380;SDS011;53177;52.648;1.214;2023-12-20T01:43:35;7.97;;;1.70;;
66380;SDS011;53177;52.648;1.214;2023-12-20T01:46:01;14.18;;;2.08;;
66380;SDS011;53177;52.648;1.214;2023-12-20T01:48:28;10.45;;;2.00;;
66380;SDS011;53177;52.648;1.214;2023-12-20T01:50:54;8.15;;;1.90;;
66380;SDS011;53177;52.648;1.214;2023-12-20T01:53:21;8.47;;;1.90;;
66380;SDS011;53177;52.648;1.214;2023-12-20T01:55:49;16.77;;;2.63;;
66380;SDS011;53177;52.648;1.214;2023-12-20T01:58:15;11.32;;;2.25;;
66380;SDS011;53177;52.648;1.214;2023-12-20T02:00:42;9.73;;;2.00;;
66380;SDS011;53177;52.648;1.214;2023-12-20T02:03:07;9.43;;;2.17;;
66380;SDS011;53177;52.648;1.214;2023-12-20T02:05:34;12.23;;;2.20;;
66380;SDS011;53177;52.648;1.214;2023-12-20T02:08:00;9.60;;;1.85;;
66380;SDS011;53177;52.648;1.214;2023-12-20T02:10:26;11.40;;;2.00;;
66380;SDS011;53177;52.648;1.214;2023-12-20T02:12:54;10.45;;;1.73;;
66380;SDS011;53177;52.648;1.214;2023-12-20T02:15:19;11.27;;;2.10;;
66380;SDS011;53177;52.648;1.214;2023-12-20T02:17:45;12.17;;;2.33;;
66380;SDS011;53177;52.648;1.214;2023-12-20T02:20:12;12.43;;;2.20;;
66380;SDS011;53177;52.648;1.214;2023-12-20T02:22:38;9.05;;;1.70;;
66380;SDS011;53177;52.648;1.214;2023-12-20T02:25:03;12.53;;;1.80;;
66380;SDS011;53177;52.648;1.214;2023-12-20T02:27:29;14.65;;;2.00;;
66380;SDS011;53177;52.648;1.214;2023-12-20T02:29:55;12.02;;;1.70;;
66380;SDS011;53177;52.648;1.214;2023-12-20T02:32:20;9.17;;;1.80;;
66380;SDS011;53177;52.648;1.214;2023-12-20T02:34:47;12.05;;;2.05;;
66380;SDS011;53177;52.648;1.214;2023-12-20T02:37:13;18.47;;;2.10;;
66380;SDS011;53177;52.648;1.214;2023-12-20T02:39:38;10.00;;;2.00;;
66380;SDS011;53177;52.648;1.214;2023-12-20T02:42:04;11.88;;;1.80;;
66380;SDS011;53177;52.648;1.214;2023-12-20T02:44:29;11.07;;;2.30;;
66380;SDS011;53177;52.648;1.214;2023-12-20T02:46:54;14.13;;;2.20;;
66380;SDS011;53177;52.648;1.214;2023-12-20T02:49:20;7.33;;;1.67;;
66380;SDS011;53177;52.648;1.214;2023-12-20T02:51:45;11.00;;;1.97;;
66380;SDS011;53177;52.648;1.214;2023-12-20T02:54:11;11.10;;;1.77;;
66380;SDS011;53177;52.648;1.214;2023-12-20T02:56:36;12.20;;;2.00;;
66380;SDS011;53177;52.648;1.214;2023-12-20T02:59:02;10.83;;;2.03;;
66380;SDS011;53177;52.648;1.214;2023-12-20T03:01:30;11.55;;;2.00;;
66380;SDS011;53177;52.648;1.214;2023-12-20T03:03:55;12.30;;;1.83;;
66380;SDS011;53177;52.648;1.214;2023-12-20T03:06:21;8.85;;;2.00;;
66380;SDS011;53177;52.648;1.214;2023-12-20T03:08:46;12.82;;;1.75;;
66380;SDS011;53177;52.648;1.214;2023-12-20T03:11:12;12.23;;;2.17;;
66380;SDS011;53177;52.648;1.214;2023-12-20T03:13:37;9.93;;;1.70;;
66380;SDS011;53177;52.648;1.214;2023-12-20T03:16:09;13.50;;;2.10;;
66380;SDS011;53177;52.648;1.214;2023-12-20T03:18:35;13.38;;;1.90;;
66380;SDS011;53177;52.648;1.214;2023-12-20T03:21:01;13.63;;;2.20;;
66380;SDS011;53177;52.648;1.214;2023-12-20T03:23:26;11.13;;;2.10;;
66380;SDS011;53177;52.648;1.214;2023-12-20T03:25:52;9.00;;;2.00;;
66380;SDS011;53177;52.648;1.214;2023-12-20T03:28:17;13.80;;;2.30;;
66380;SDS011;53177;52.648;1.214;2023-12-20T03:30:43;11.13;;;1.90;;
66380;SDS011;53177;52.648;1.214;2023-12-20T03:33:09;11.53;;;2.20;;
66380;SDS011;53177;52.648;1.214;2023-12-20T03:35:34;11.03;;;1.47;;
66380;SDS011;53177;52.648;1.214;2023-12-20T03:37:59;10.37;;;1.97;;
66380;SDS011;53177;52.648;1.214;2023-12-20T03:40:26;11.50;;;1.60;;
66380;SDS011;53177;52.648;1.214;2023-12-20T03:42:52;10.00;;;1.70;;
66380;SDS011;53177;52.648;1.214;2023-12-20T03:45:18;12.77;;;2.03;;
66380;SDS011;53177;52.648;1.214;2023-12-20T03:47:43;9.60;;;1.63;;
66380;SDS011;53177;52.648;1.214;2023-12-20T03:50:08;12.87;;;1.70;;
66380;SDS011;53177;52.648;1.214;2023-12-20T03:52:34;7.70;;;1.30;;
66380;SDS011;53177;52.648;1.214;2023-12-20T03:54:59;9.80;;;1.70;;
66380;SDS011;53177;52.648;1.214;2023-12-20T03:57:24;12.47;;;1.97;;
66380;SDS011;53177;52.648;1.214;2023-12-20T03:59:50;7.33;;;1.50;;
66380;SDS011;53177;52.648;1.214;2023-12-20T04:02:15;9.43;;;1.73;;
66380;SDS011;53177;52.648;1.214;2023-12-20T04:04:43;9.98;;;1.65;;
66380;SDS011;53177;52.648;1.214;2023-12-20T04:07:08;6.88;;;1.45;;
66380;SDS011;53177;52.648;1.214;2023-12-20T04:09:33;9.30;;;1.40;;
66380;SDS011;53177;52.648;1.214;2023-12-20T04:11:59;9.30;;;1.80;;
66380;SDS011;53177;52.648;1.214;2023-12-20T04:14:24;8.60;;;1.63;;
66380;SDS011;53177;52.648;1.214;2023-12-20T04:16:50;12.20;;;1.80;;
66380;SDS011;53177;52.648;1.214;2023-12-20T04:19:15;8.40;;;1.50;;
66380;SDS011;53177;52.648;1.214;2023-12-20T04:21:40;9.75;;;1.45;;
66380;SDS011;53177;52.648;1.214;2023-12-20T04:24:06;8.53;;;1.40;;
66380;SDS011;53177;52.648;1.214;2023-12-20T04:26:31;12.73;;;1.90;;
66380;SDS011;53177;52.648;1.214;2023-12-20T04:28:56;12.00;;;1.50;;
66380;SDS011;53177;52.648;1.214;2023-12-20T04:31:22;9.63;;;1.53;;
66380;SDS011;53177;52.648;1.214;2023-12-20T04:33:47;10.33;;;1.87;;
66380;SDS011;53177;52.648;1.214;2023-12-20T04:36:12;11.07;;;1.80;;
66380;SDS011;53177;52.648;1.214;2023-12-20T04:38:38;8.02;;;1.50;;
66380;SDS011;53177;52.648;1.214;2023-12-20T04:41:03;11.73;;;1.67;;
66380;SDS011;53177;52.648;1.214;2023-12-20T04:43:29;8.87;;;1.20;;
66380;SDS011;53177;52.648;1.214;2023-12-20T04:45:54;11.50;;;1.80;;
66380;SDS011;53177;52.648;1.214;2023-12-20T04:48:20;16.27;;;2.20;;
66380;SDS011;53177;52.648;1.214;2023-12-20T04:50:45;13.05;;;1.77;;
66380;SDS011;53177;52.648;1.214;2023-12-20T04:53:11;9.23;;;1.60;;
66380;SDS011;53177;52.648;1.214;2023-12-20T04:55:36;11.83;;;1.77;;
66380;SDS011;53177;52.648;1.214;2023-12-20T04:58:01;10.27;;;1.93;;
66380;SDS011;53177;52.648;1.214;2023-12-20T05:00:27;11.83;;;1.60;;
66380;SDS011;53177;52.648;1.214;2023-12-20T05:02:53;13.95;;;2.08;;
66380;SDS011;53177;52.648;1.214;2023-12-20T05:05:19;11.40;;;1.53;;
66380;SDS011;53177;52.648;1.214;2023-12-20T05:07:45;7.43;;;1.75;;
66380;SDS011;53177;52.648;1.214;2023-12-20T05:10:11;12.77;;;1.70;;
66380;SDS011;53177;52.648;1.214;2023-12-20T05:12:38;11.38;;;1.50;;
66380;SDS011;53177;52.648;1.214;2023-12-20T05:15:05;9.77;;;1.33;;
66380;SDS011;53177;52.648;1.214;2023-12-20T05:17:31;9.48;;;1.20;;
66380;SDS011;53177;52.648;1.214;2023-12-20T05:19:57;10.50;;;1.40;;
66380;SDS011;53177;52.648;1.214;2023-12-20T05:22:22;12.87;;;1.90;;
66380;SDS011;53177;52.648;1.214;2023-12-20T05:24:47;11.43;;;1.73;;
66380;SDS011;53177;52.648;1.214;2023-12-20T05:27:13;8.63;;;1.70;;
66380;SDS011;53177;52.648;1.214;2023-12-20T05:29:38;8.05;;;1.95;;
66380;SDS011;53177;52.648;1.214;2023-12-20T05:32:04;9.20;;;1.57;;
66380;SDS011;53177;52.648;1.214;2023-12-20T05:34:30;7.33;;;1.40;;
66380;SDS011;53177;52.648;1.214;2023-12-20T05:36:55;10.68;;;1.70;;
66380;SDS011;53177;52.648;1.214;2023-12-20T05:39:21;14.73;;;1.83;;
66380;SDS011;53177;52.648;1.214;2023-12-20T05:41:46;7.63;;;1.30;;
66380;SDS011;53177;52.648;1.214;2023-12-20T05:44:12;9.47;;;1.40;;
66380;SDS011;53177;52.648;1.214;2023-12-20T05:46:38;9.68;;;1.38;;
66380;SDS011;53177;52.648;1.214;2023-12-20T05:49:04;11.90;;;1.45;;
66380;SDS011;53177;52.648;1.214;2023-12-20T05:51:30;12.67;;;1.50;;
66380;SDS011;53177;52.648;1.214;2023-12-20T05:53:55;11.37;;;1.80;;
66380;SDS011;53177;52.648;1.214;2023-12-20T05:56:20;13.07;;;1.70;;
66380;SDS011;53177;52.648;1.214;2023-12-20T05:58:46;8.53;;;1.50;;
66380;SDS011;53177;52.648;1.214;2023-12-20T06:01:11;8.00;;;1.63;;
66380;SDS011;53177;52.648;1.214;2023-12-20T06:03:37;9.15;;;1.58;;
66380;SDS011;53177;52.648;1.214;2023-12-20T06:06:06;9.85;;;1.85;;
66380;SDS011;53177;52.648;1.214;2023-12-20T06:08:32;7.78;;;1.35;;
66380;SDS011;53177;52.648;1.214;2023-12-20T06:10:57;7.93;;;1.60;;
66380;SDS011;53177;52.648;1.214;2023-12-20T06:13:23;7.50;;;1.37;;
66380;SDS011;53177;52.648;1.214;2023-12-20T06:15:48;10.50;;;1.37;;
66380;SDS011;53177;52.648;1.214;2023-12-20T06:18:13;11.00;;;1.88;;
66380;SDS011;53177;52.648;1.214;2023-12-20T06:20:39;12.95;;;2.05;;
66380;SDS011;53177;52.648;1.214;2023-12-20T06:23:04;8.83;;;1.60;;
66380;SDS011;53177;52.648;1.214;2023-12-20T06:25:30;10.43;;;1.60;;
66380;SDS011;53177;52.648;1.214;2023-12-20T06:27:55;12.50;;;2.00;;
66380;SDS011;53177;52.648;1.214;2023-12-20T06:30:21;10.60;;;1.87;;
66380;SDS011;53177;52.648;1.214;2023-12-20T06:32:46;9.00;;;1.38;;
66380;SDS011;53177;52.648;1.214;2023-12-20T06:35:12;7.63;;;1.40;;
66380;SDS011;53177;52.648;1.214;2023-12-20T06:37:38;9.00;;;1.20;;
66380;SDS011;53177;52.648;1.214;2023-12-20T06:40:07;9.48;;;1.50;;
66380;SDS011;53177;52.648;1.214;2023-12-20T06:42:34;8.70;;;1.50;;
66380;SDS011;53177;52.648;1.214;2023-12-20T06:45:00;11.73;;;1.85;;
66380;SDS011;53177;52.648;1.214;2023-12-20T06:47:25;10.37;;;2.27;;
66380;SDS011;53177;52.648;1.214;2023-12-20T06:49:51;9.80;;;1.50;;
66380;SDS011;53177;52.648;1.214;2023-12-20T06:52:16;10.05;;;1.73;;
66380;SDS011;53177;52.648;1.214;2023-12-20T06:54:42;8.30;;;1.57;;
66380;SDS011;53177;52.648;1.214;2023-12-20T06:57:07;8.13;;;2.17;;
66380;SDS011;53177;52.648;1.214;2023-12-20T06:59:37;8.93;;;1.35;;
66380;SDS011;53177;52.648;1.214;2023-12-20T07:02:03;7.95;;;1.60;;
66380;SDS011;53177;52.648;1.214;2023-12-20T07:04:30;7.73;;;1.33;;
66380;SDS011;53177;52.648;1.214;2023-12-20T07:06:55;10.68;;;1.40;;
66380;SDS011;53177;52.648;1.214;2023-12-20T07:09:22;8.20;;;1.38;;
66380;SDS011;53177;52.648;1.214;2023-12-20T07:11:48;9.50;;;1.45;;
66380;SDS011;53177;52.648;1.214;2023-12-20T07:14:14;7.53;;;1.03;;
66380;SDS011;53177;52.648;1.214;2023-12-20T07:16:39;10.60;;;1.50;;
66380;SDS011;53177;52.648;1.214;2023-12-20T07:19:05;8.57;;;1.73;;
66380;SDS011;53177;52.648;1.214;2023-12-20T07:21:31;14.07;;;1.88;;
66380;SDS011;53177;52.648;1.214;2023-12-20T07:23:57;7.68;;;1.35;;
66380;SDS011;53177;52.648;1.214;2023-12-20T07:26:22;10.00;;;1.90;;
66380;SDS011;53177;52.648;1.214;2023-12-20T07:28:48;8.83;;;1.50;;
66380;SDS011;53177;52.648;1.214;2023-12-20T07:31:17;10.90;;;1.73;;
66380;SDS011;53177;52.648;1.214;2023-12-20T07:33:43;9.20;;;1.40;;
66380;SDS011;53177;52.648;1.214;2023-12-20T07:36:09;8.10;;;1.73;;
66380;SDS011;53177;52.648;1.214;2023-12-20T07:38:36;10.00;;;1.67;;
66380;SDS011;53177;52.648;1.214;2023-12-20T07:41:03;9.13;;;1.50;;
66380;SDS011;53177;52.648;1.214;2023-12-20T07:43:34;8.80;;;1.50;;
66380;SDS011;53177;52.648;1.214;2023-12-20T07:46:05;10.65;;;1.63;;
66380;SDS011;53177;52.648;1.214;2023-12-20T07:48:39;9.10;;;1.85;;
66380;SDS011;53177;52.648;1.214;2023-12-20T07:51:07;8.38;;;1.30;;
66380;SDS011;53177;52.648;1.214;2023-12-20T07:53:36;12.20;;;1.80;;
66380;SDS011;53177;52.648;1.214;2023-12-20T07:56:14;8.35;;;1.40;;
66380;SDS011;53177;52.648;1.214;2023-12-20T07:58:43;8.18;;;1.30;;
66380;SDS011;53177;52.648;1.214;2023-12-20T08:01:15;10.07;;;1.55;;
66380;SDS011;53177;52.648;1.214;2023-12-20T08:03:45;13.70;;;1.92;;
66380;SDS011;53177;52.648;1.214;2023-12-20T08:06:16;12.07;;;1.90;;
66380;SDS011;53177;52.648;1.214;2023-12-20T08:08:45;9.30;;;1.80;;
66380;SDS011;53177;52.648;1.214;2023-12-20T08:11:13;10.18;;;1.70;;
66380;SDS011;53177;52.648;1.214;2023-12-20T08:13:43;10.25;;;1.40;;
66380;SDS011;53177;52.648;1.214;2023-12-20T08:16:11;9.05;;;1.60;;
66380;SDS011;53177;52.648;1.214;2023-12-20T08:18:41;9.60;;;1.50;;
66380;SDS011;53177;52.648;1.214;2023-12-20T08:21:10;9.75;;;1.48;;
66380;SDS011;53177;52.648;1.214;2023-12-20T08:23:38;9.25;;;1.38;;
66380;SDS011;53177;52.648;1.214;2023-12-20T08:26:06;10.38;;;1.50;;
66380;SDS011;53177;52.648;1.214;2023-12-20T08:28:34;8.82;;;1.45;;
66380;SDS011;53177;52.648;1.214;2023-12-20T08:31:06;8.20;;;2.00;;
66380;SDS011;53177;52.648;1.214;2023-12-20T08:33:42;9.27;;;1.52;;
66380;SDS011;53177;52.648;1.214;2023-12-20T08:36:14;16.75;;;3.22;;
66380;SDS011;53177;52.648;1.214;2023-12-20T08:38:43;9.73;;;1.58;;
66380;SDS011;53177;52.648;1.214;2023-12-20T08:41:11;11.05;;;1.58;;
66380;SDS011;53177;52.648;1.214;2023-12-20T08:43:40;11.67;;;1.83;;
66380;SDS011;53177;52.648;1.214;2023-12-20T08:46:09;8.02;;;1.70;;
66380;SDS011;53177;52.648;1.214;2023-12-20T08:48:41;10.00;;;1.73;;
66380;SDS011;53177;52.648;1.214;2023-12-20T08:51:10;11.75;;;1.48;;
66380;SDS011;53177;52.648;1.214;2023-12-20T08:53:37;8.73;;;2.00;;
66380;SDS011;53177;52.648;1.214;2023-12-20T08:56:03;7.87;;;1.27;;
66380;SDS011;53177;52.648;1.214;2023-12-20T08:58:29;9.90;;;1.60;;
66380;SDS011;53177;52.648;1.214;2023-12-20T09:00:56;8.33;;;1.60;;
66380;SDS011;53177;52.648;1.214;2023-12-20T09:03:29;9.57;;;1.30;;
66380;SDS011;53177;52.648;1.214;2023-12-20T09:05:57;8.40;;;1.50;;
66380;SDS011;53177;52.648;1.214;2023-12-20T09:08:22;8.27;;;1.53;;
66380;SDS011;53177;52.648;1.214;2023-12-20T09:10:47;6.50;;;1.57;;
66380;SDS011;53177;52.648;1.214;2023-12-20T09:13:12;11.63;;;1.87;;
66380;SDS011;53177;52.648;1.214;2023-12-20T09:15:38;8.25;;;1.40;;
66380;SDS011;53177;52.648;1.214;2023-12-20T09:18:03;8.20;;;1.45;;
66380;SDS011;53177;52.648;1.214;2023-12-20T09:20:29;7.07;;;1.10;;
66380;SDS011;53177;52.648;1.214;2023-12-20T09:22:56;9.50;;;1.73;;
66380;SDS011;53177;52.648;1.214;2023-12-20T09:25:21;10.37;;;1.57;;
66380;SDS011;53177;52.648;1.214;2023-12-20T09:27:48;11.00;;;1.40;;
66380;SDS011;53177;52.648;1.214;2023-12-20T09:30:14;11.57;;;1.47;;
66380;SDS011;53177;52.648;1.214;2023-12-20T09:32:40;11.32;;;1.48;;
66380;SDS011;53177;52.648;1.214;2023-12-20T09:35:06;11.47;;;1.50;;
66380;SDS011;53177;52.648;1.214;2023-12-20T09:37:33;12.13;;;1.50;;
66380;SDS011;53177;52.648;1.214;2023-12-20T09:39:59;8.20;;;1.60;;
66380;SDS011;53177;52.648;1.214;2023-12-20T09:42:25;12.60;;;1.50;;
66380;SDS011;53177;52.648;1.214;2023-12-20T09:45:14;8.43;;;1.40;;
66380;SDS011;53177;52.648;1.214;2023-12-20T09:47:43;6.27;;;1.40;;
66380;SDS011;53177;52.648;1.214;2023-12-20T09:50:08;9.80;;;1.83;;
66380;SDS011;53177;52.648;1.214;2023-12-20T09:52:34;7.50;;;1.48;;
66380;SDS011;53177;52.648;1.214;2023-12-20T09:55:01;9.43;;;1.60;;
66380;SDS011;53177;52.648;1.214;2023-12-20T09:57:31;9.52;;;1.33;;
66380;SDS011;53177;52.648;1.214;2023-12-20T09:59:57;10.30;;;1.77;;
66380;SDS011;53177;52.648;1.214;2023-12-20T10:02:23;10.13;;;1.30;;
66380;SDS011;53177;52.648;1.214;2023-12-20T10:04:52;9.35;;;1.33;;
66380;SDS011;53177;52.648;1.214;2023-12-20T10:07:17;9.95;;;1.55;;
66380;SDS011;53177;52.648;1.214;2023-12-20T10:09:43;9.90;;;1.60;;
66380;SDS011;53177;52.648;1.214;2023-12-20T10:12:09;8.02;;;1.83;;
66380;SDS011;53177;52.648;1.214;2023-12-20T10:14:34;11.43;;;1.83;;
66380;SDS011;53177;52.648;1.214;2023-12-20T10:17:03;11.00;;;1.60;;
66380;SDS011;53177;52.648;1.214;2023-12-20T10:19:29;10.10;;;1.73;;
66380;SDS011;53177;52.648;1.214;2023-12-20T10:21:54;11.27;;;1.80;;
66380;SDS011;53177;52.648;1.214;2023-12-20T10:24:20;7.57;;;1.40;;
66380;SDS011;53177;52.648;1.214;2023-12-20T10:26:46;10.55;;;1.80;;
66380;SDS011;53177;52.648;1.214;2023-12-20T10:29:11;9.00;;;1.57;;
66380;SDS011;53177;52.648;1.214;2023-12-20T10:31:36;11.67;;;1.47;;
66380;SDS011;53177;52.648;1.214;2023-12-20T10:34:03;9.70;;;1.58;;
66380;SDS011;53177;52.648;1.214;2023-12-20T10:36:30;11.47;;;2.30;;
66380;SDS011;53177;52.648;1.214;2023-12-20T10:38:57;8.77;;;1.50;;
66380;SDS011;53177;52.648;1.214;2023-12-20T10:41:30;7.28;;;1.50;;
66380;SDS011;53177;52.648;1.214;2023-12-20T10:46:27;9.20;;;1.50;;
66380;SDS011;53177;52.648;1.214;2023-12-20T10:48:54;9.90;;;1.30;;
66380;SDS011;53177;52.648;1.214;2023-12-20T10:51:20;8.90;;;1.52;;
66380;SDS011;53177;52.648;1.214;2023-12-20T10:53:47;8.40;;;1.48;;
66380;SDS011;53177;52.648;1.214;2023-12-20T10:56:15;7.50;;;1.40;;
66380;SDS011;53177;52.648;1.214;2023-12-20T10:58:42;7.03;;;1.20;;
66380;SDS011;53177;52.648;1.214;2023-12-20T11:01:12;11.23;;;1.48;;
66380;SDS011;53177;52.648;1.214;2023-12-20T11:03:50;10.10;;;1.45;;
66380;SDS011;53177;52.648;1.214;2023-12-20T11:06:21;10.75;;;1.48;;
66380;SDS011;53177;52.648;1.214;2023-12-20T11:11:51;8.43;;;1.20;;
66380;SDS011;53177;52.648;1.214;2023-12-20T11:14:33;5.88;;;1.20;;
66380;SDS011;53177;52.648;1.214;2023-12-20T11:17:11;5.97;;;0.98;;
66380;SDS011;53177;52.648;1.214;2023-12-20T11:22:22;7.13;;;1.20;;
66380;SDS011;53177;52.648;1.214;2023-12-20T11:24:49;9.63;;;1.73;;
66380;SDS011;53177;52.648;1.214;2023-12-20T11:27:15;6.13;;;1.15;;
66380;SDS011;53177;52.648;1.214;2023-12-20T11:29:41;6.90;;;1.30;;
66380;SDS011;53177;52.648;1.214;2023-12-20T11:34:59;10.20;;;1.20;;
66380;SDS011;53177;52.648;1.214;2023-12-20T11:37:29;6.72;;;1.00;;
66380;SDS011;53177;52.648;1.214;2023-12-20T11:40:06;6.35;;;1.30;;
66380;SDS011;53177;52.648;1.214;2023-12-20T11:42:40;9.95;;;1.50;;
66380;SDS011;53177;52.648;1.214;2023-12-20T11:45:08;6.05;;;1.17;;
66380;SDS011;53177;52.648;1.214;2023-12-20T11:47:40;8.00;;;1.50;;
66380;SDS011;53177;52.648;1.214;2023-12-20T11:50:08;7.75;;;1.23;;
66380;SDS011;53177;52.648;1.214;2023-12-20T11:52:34;11.40;;;1.75;;
66380;SDS011;53177;52.648;1.214;2023-12-20T11:55:00;6.93;;;1.20;;
66380;SDS011;53177;52.648;1.214;2023-12-20T11:57:25;10.23;;;1.55;;
66380;SDS011;53177;52.648;1.214;2023-12-20T11:59:50;6.65;;;1.33;;
66380;SDS011;53177;52.648;1.214;2023-12-20T12:02:16;7.50;;;1.67;;
66380;SDS011;53177;52.648;1.214;2023-12-20T12:04:41;7.77;;;1.40;;
66380;SDS011;53177;52.648;1.214;2023-12-20T12:07:07;8.85;;;1.38;;
66380;SDS011;53177;52.648;1.214;2023-12-20T12:09:33;8.17;;;1.37;;
66380;SDS011;53177;52.648;1.214;2023-12-20T12:11:59;6.20;;;1.10;;
66380;SDS011;53177;52.648;1.214;2023-12-20T12:14:27;8.93;;;1.67;;
66380;SDS011;53177;52.648;1.214;2023-12-20T12:16:53;6.68;;;1.20;;
66380;SDS011;53177;52.648;1.214;2023-12-20T12:19:22;9.77;;;1.27;;
66380;SDS011;53177;52.648;1.214;2023-12-20T12:21:52;7.57;;;1.20;;
66380;SDS011;53177;52.648;1.214;2023-12-20T12:24:31;7.10;;;1.50;;
66380;SDS011;53177;52.648;1.214;2023-12-20T12:26:57;6.87;;;1.37;;
66380;SDS011;53177;52.648;1.214;2023-12-20T12:29:23;7.45;;;1.60;;
66380;SDS011;53177;52.648;1.214;2023-12-20T12:31:49;7.97;;;1.55;;
66380;SDS011;53177;52.648;1.214;2023-12-20T12:34:16;9.70;;;1.20;;
66380;SDS011;53177;52.648;1.214;2023-12-20T12:36:42;8.25;;;1.50;;
66380;SDS011;53177;52.648;1.214;2023-12-20T12:39:08;8.10;;;1.50;;
66380;SDS011;53177;52.648;1.214;2023-12-20T12:41:34;7.47;;;1.10;;
66380;SDS011;53177;52.648;1.214;2023-12-20T12:44:00;7.37;;;1.37;;
66380;SDS011;53177;52.648;1.214;2023-12-20T12:46:25;6.77;;;1.50;;
66380;SDS011;53177;52.648;1.214;2023-12-20T12:48:51;6.03;;;1.23;;
66380;SDS011;53177;52.648;1.214;2023-12-20T12:51:16;9.13;;;1.27;;
66380;SDS011;53177;52.648;1.214;2023-12-20T12:53:41;8.37;;;1.00;;
66380;SDS011;53177;52.648;1.214;2023-12-20T12:56:07;6.73;;;1.17;;
66380;SDS011;53177;52.648;1.214;2023-12-20T12:58:33;6.60;;;1.30;;
66380;SDS011;53177;52.648;1.214;2023-12-20T13:00:59;9.73;;;1.20;;
66380;SDS011;53177;52.648;1.214;2023-12-20T13:03:24;5.87;;;1.20;;
66380;SDS011;53177;52.648;1.214;2023-12-20T13:05:50;5.40;;;1.00;;
66380;SDS011;53177;52.648;1.214;2023-12-20T13:08:15;4.60;;;1.10;;
66380;SDS011;53177;52.648;1.214;2023-12-20T13:10:41;6.93;;;1.13;;
66380;SDS011;53177;52.648;1.214;2023-12-20T13:13:06;6.68;;;1.38;;
66380;SDS011;53177;52.648;1.214;2023-12-20T13:15:32;5.33;;;1.00;;
66380;SDS011;53177;52.648;1.214;2023-12-20T13:17:58;6.88;;;1.33;;
66380;SDS011;53177;52.648;1.214;2023-12-20T13:20:24;7.70;;;1.10;;
66380;SDS011;53177;52.648;1.214;2023-12-20T13:22:50;7.57;;;1.00;;
66380;SDS011;53177;52.648;1.214;2023-12-20T13:25:16;7.27;;;1.10;;
66380;SDS011;53177;52.648;1.214;2023-12-20T13:27:41;4.83;;;1.03;;
66380;SDS011;53177;52.648;1.214;2023-12-20T13:30:06;7.73;;;1.10;;
66380;SDS011;53177;52.648;1.214;2023-12-20T13:32:32;7.25;;;1.00;;
66380;SDS011;53177;52.648;1.214;2023-12-20T13:34:57;5.90;;;0.90;;
66380;SDS011;53177;52.648;1.214;2023-12-20T13:37:23;3.47;;;0.80;;
66380;SDS011;53177;52.648;1.214;2023-12-20T13:39:48;5.33;;;0.80;;
66380;SDS011;53177;52.648;1.214;2023-12-20T13:42:13;6.30;;;0.77;;
66380;SDS011;53177;52.648;1.214;2023-12-20T13:44:39;5.55;;;0.95;;
66380;SDS011;53177;52.648;1.214;2023-12-20T13:47:05;3.70;;;0.90;;
66380;SDS011;53177;52.648;1.214;2023-12-20T13:49:31;5.82;;;1.13;;
66380;SDS011;53177;52.648;1.214;2023-12-20T13:51:56;4.77;;;0.90;;
66380;SDS011;53177;52.648;1.214;2023-12-20T13:54:22;6.57;;;1.10;;
66380;SDS011;53177;52.648;1.214;2023-12-20T13:56:48;4.63;;;0.67;;
66380;SDS011;53177;52.648;1.214;2023-12-20T13:59:13;4.70;;;0.73;;
66380;SDS011;53177;52.648;1.214;2023-12-20T14:01:40;4.57;;;0.98;;
66380;SDS011;53177;52.648;1.214;2023-12-20T14:04:05;4.53;;;0.70;;
66380;SDS011;53177;52.648;1.214;2023-12-20T14:06:31;3.50;;;0.63;;
66380;SDS011;53177;52.648;1.214;2023-12-20T14:08:57;4.28;;;0.70;;
66380;SDS011;53177;52.648;1.214;2023-12-20T14:11:25;5.10;;;0.70;;
66380;SDS011;53177;52.648;1.214;2023-12-20T14:13:51;8.00;;;0.70;;
66380;SDS011;53177;52.648;1.214;2023-12-20T14:16:17;6.57;;;0.80;;
66380;SDS011;53177;52.648;1.214;2023-12-20T14:18:42;3.03;;;0.63;;
66380;SDS011;53177;52.648;1.214;2023-12-20T14:21:07;4.23;;;0.67;;
66380;SDS011;53177;52.648;1.214;2023-12-20T14:23:33;5.27;;;0.80;;
66380;SDS011;53177;52.648;1.214;2023-12-20T14:25:59;4.22;;;0.88;;
66380;SDS011;53177;52.648;1.214;2023-12-20T14:28:28;4.20;;;0.90;;
66380;SDS011;53177;52.648;1.214;2023-12-20T14:30:53;5.13;;;0.80;;
66380;SDS011;53177;52.648;1.214;2023-12-20T14:33:19;4.23;;;0.90;;
66380;SDS011;53177;52.648;1.214;2023-12-20T14:35:46;4.70;;;0.68;;
66380;SDS011;53177;52.648;1.214;2023-12-20T14:38:12;3.43;;;0.60;;
66380;SDS011;53177;52.648;1.214;2023-12-20T14:40:40;4.22;;;0.73;;
66380;SDS011;53177;52.648;1.214;2023-12-20T14:43:05;5.93;;;1.10;;
66380;SDS011;53177;52.648;1.214;2023-12-20T14:45:31;5.50;;;1.00;;
66380;SDS011;53177;52.648;1.214;2023-12-20T14:47:57;5.53;;;1.90;;
66380;SDS011;53177;52.648;1.214;2023-12-20T14:50:24;8.30;;;1.92;;